Time;durP1;ratioP1;P1;durP2;ratioP2;P2;SDS_P1;SDS_P2;PMS_P1;PMS_P2;Temp;Humidity;BMP_temperature;BMP_pressure;BME280_temperature;BME280_humidity;BME280_pressure;Samples;Min_cycle;Max_cycle;Signal;HPM_P1;HPM_P2
2022/09/02 00:01:36;;;;;;;1.95;0.90;;;16.10;91.50;;;;;;5051386;28;20052;-67
2022/09/02 00:04:05;;;;;;;3.17;1.00;;;16.10;91.50;;;;;;5051301;28;20070;-67
2022/09/02 00:06:31;;;;;;;4.55;1.13;;;16.10;91.60;;;;;;5043075;28;20112;-66
2022/09/02 00:08:58;;;;;;;2.33;1.00;;;16.10;91.60;;;;;;5051507;28;20126;-65
2022/09/02 00:11:26;;;;;;;2.08;1.00;;;16.00;91.60;;;;;;5051213;28;20037;-65
2022/09/02 00:13:53;;;;;;;1.38;1.00;;;16.00;91.50;;;;;;5051299;28;20568;-65
2022/09/02 00:16:21;;;;;;;2.10;1.02;;;16.00;91.50;;;;;;5051566;28;20410;-67
2022/09/02 00:18:47;;;;;;;3.05;1.13;;;16.00;91.60;;;;;;5051249;28;20123;-67
2022/09/02 00:21:14;;;;;;;1.35;1.00;;;15.90;91.50;;;;;;5051215;28;20124;-67
2022/09/02 00:23:42;;;;;;;3.30;0.90;;;16.00;91.50;;;;;;5051574;28;20045;-65
2022/09/02 00:26:07;;;;;;;4.90;0.98;;;15.80;91.50;;;;;;5051482;28;20073;-65
2022/09/02 00:28:34;;;;;;;1.63;0.98;;;15.90;91.60;;;;;;5051370;28;20083;-65
2022/09/02 00:31:00;;;;;;;1.58;0.90;;;15.80;91.50;;;;;;5050931;28;20049;-65
2022/09/02 00:33:25;;;;;;;4.05;0.98;;;15.80;91.40;;;;;;5050956;28;20037;-65
2022/09/02 00:35:51;;;;;;;4.13;1.10;;;15.80;91.50;;;;;;5051338;28;20398;-65
2022/09/02 00:38:17;;;;;;;2.25;1.38;;;15.80;91.50;;;;;;5051264;28;20041;-65
2022/09/02 00:40:48;;;;;;;3.15;1.10;;;15.80;91.60;;;;;;5050782;28;20095;-65
2022/09/02 00:43:39;;;;;;;2.17;1.13;;;15.70;91.70;;;;;;5051137;28;20044;-65
2022/09/02 00:46:05;;;;;;;3.22;1.25;;;15.70;91.90;;;;;;5052211;28;20079;-67
2022/09/02 00:48:31;;;;;;;4.50;0.90;;;15.70;91.90;;;;;;5054956;28;20037;-65
2022/09/02 00:50:57;;;;;;;4.00;1.15;;;15.70;91.90;;;;;;5054588;28;20049;-65
2022/09/02 00:53:24;;;;;;;1.00;0.90;;;15.60;92.00;;;;;;5054730;28;20124;-65
2022/09/02 00:55:51;;;;;;;2.83;1.10;;;15.60;92.10;;;;;;5054668;28;20040;-65
2022/09/02 00:58:29;;;;;;;2.63;0.80;;;15.50;92.20;;;;;;5054549;28;20510;-65
2022/09/02 01:00:57;;;;;;;2.13;1.00;;;15.60;92.20;;;;;;5054385;28;20041;-65
2022/09/02 01:03:25;;;;;;;1.90;1.10;;;15.50;92.30;;;;;;5054542;28;20036;-65
2022/09/02 01:05:52;;;;;;;2.38;1.13;;;15.50;92.20;;;;;;5053222;28;20495;-65
2022/09/02 01:08:23;;;;;;;6.45;0.93;;;15.50;92.20;;;;;;5054450;28;20070;-65
2022/09/02 01:10:51;;;;;;;2.42;0.88;;;15.50;92.40;;;;;;5053983;28;20045;-65
2022/09/02 01:13:19;;;;;;;2.38;0.90;;;15.40;92.50;;;;;;5054237;28;20178;-65
2022/09/02 01:15:48;;;;;;;1.67;1.25;;;15.40;92.50;;;;;;5054332;28;20040;-65
2022/09/02 01:18:19;;;;;;;1.00;0.82;;;15.40;92.60;;;;;;5054271;28;20123;-65
2022/09/02 01:20:45;;;;;;;6.20;1.63;;;15.40;92.60;;;;;;5053895;28;20120;-65
2022/09/02 01:23:12;;;;;;;1.45;0.98;;;15.30;92.70;;;;;;5054165;28;20541;-65
2022/09/02 01:25:38;;;;;;;1.40;0.95;;;15.40;92.70;;;;;;5053723;28;20055;-65
2022/09/02 01:28:07;;;;;;;2.35;1.15;;;15.30;92.70;;;;;;5054180;28;20033;-65
2022/09/02 01:30:34;;;;;;;3.40;1.30;;;15.30;92.70;;;;;;5053788;28;20037;-65
2022/09/02 01:33:00;;;;;;;1.65;0.90;;;15.40;92.60;;;;;;5053955;28;20090;-65
2022/09/02 01:35:26;;;;;;;5.05;0.90;;;15.30;92.70;;;;;;5053823;28;20041;-65
2022/09/02 01:37:57;;;;;;;2.47;0.85;;;15.30;92.70;;;;;;5053757;28;20033;-65
2022/09/02 01:40:24;;;;;;;1.50;1.00;;;15.30;92.60;;;;;;5053688;28;20037;-65
2022/09/02 01:42:54;;;;;;;5.38;1.00;;;15.30;92.80;;;;;;5053600;28;20589;-65
2022/09/02 01:45:20;;;;;;;3.17;1.20;;;15.30;92.70;;;;;;5053786;28;20037;-65
2022/09/02 01:47:46;;;;;;;3.30;1.20;;;15.30;92.70;;;;;;5053555;28;20487;-65
2022/09/02 01:50:12;;;;;;;3.15;0.77;;;15.30;92.60;;;;;;5053386;28;20051;-65
2022/09/02 01:52:38;;;;;;;2.88;1.10;;;15.30;92.70;;;;;;5053342;28;20479;-65
2022/09/02 01:55:04;;;;;;;1.70;0.90;;;15.30;92.70;;;;;;5053413;28;20098;-65
2022/09/02 01:57:30;;;;;;;2.30;0.95;;;15.30;92.80;;;;;;5052942;28;20112;-66
2022/09/02 01:59:56;;;;;;;2.83;1.08;;;15.20;92.80;;;;;;5053191;28;20121;-65
2022/09/02 02:02:22;;;;;;;1.95;1.00;;;15.20;92.90;;;;;;5053310;28;20526;-65
2022/09/02 02:04:49;;;;;;;0.82;0.68;;;15.20;92.90;;;;;;5053243;28;20041;-65
2022/09/02 02:07:17;;;;;;;3.08;1.27;;;15.20;92.90;;;;;;5053189;28;20037;-65
2022/09/02 02:09:43;;;;;;;1.58;0.88;;;15.10;93.00;;;;;;5052904;28;20479;-65
2022/09/02 02:12:09;;;;;;;2.25;1.08;;;15.10;93.00;;;;;;5053322;28;20037;-65
2022/09/02 02:14:35;;;;;;;1.75;1.10;;;15.10;93.10;;;;;;5053016;28;20441;-65
2022/09/02 02:17:01;;;;;;;1.45;1.00;;;15.10;93.10;;;;;;5053144;28;20033;-65
2022/09/02 02:19:27;;;;;;;2.38;0.80;;;15.10;93.20;;;;;;5052620;28;20403;-65
2022/09/02 02:21:53;;;;;;;2.72;1.23;;;15.10;93.20;;;;;;5052896;28;20029;-65
2022/09/02 02:24:19;;;;;;;1.65;0.95;;;15.10;93.30;;;;;;5075539;22;20349;-66
2022/09/02 02:26:45;;;;;;;1.77;1.10;;;15.00;93.40;;;;;;5053091;28;20411;-65
2022/09/02 02:29:12;;;;;;;2.15;1.02;;;15.00;93.60;;;;;;5052759;28;20082;-66
2022/09/02 02:31:37;;;;;;;1.42;0.90;;;14.90;93.70;;;;;;5052776;28;20561;-66
2022/09/02 02:34:04;;;;;;;2.17;1.45;;;14.90;93.90;;;;;;5052774;28;20060;-66
2022/09/02 02:36:29;;;;;;;2.38;1.13;;;14.90;94.00;;;;;;5052459;28;20033;-66
2022/09/02 02:38:55;;;;;;;2.08;1.15;;;14.90;94.20;;;;;;5052858;28;20083;-66
2022/09/02 02:41:21;;;;;;;1.38;0.93;;;14.80;94.30;;;;;;5052506;28;20041;-66
2022/09/02 02:43:46;;;;;;;3.05;0.95;;;14.80;94.50;;;;;;5052673;28;20041;-66
2022/09/02 02:46:12;;;;;;;4.32;1.00;;;14.80;94.40;;;;;;5052331;28;20041;-66
2022/09/02 02:48:39;;;;;;;2.28;1.20;;;14.70;94.60;;;;;;5052523;28;20069;-66
2022/09/02 02:51:05;;;;;;;2.72;1.20;;;14.70;94.90;;;;;;5050885;28;20041;-65
2022/09/02 02:53:31;;;;;;;3.10;1.25;;;14.70;94.80;;;;;;5052646;28;20569;-66
2022/09/02 02:55:58;;;;;;;1.40;1.20;;;14.70;95.00;;;;;;5052480;28;20040;-66
2022/09/02 02:58:23;;;;;;;1.20;1.10;;;14.60;95.10;;;;;;5052552;28;20045;-65
2022/09/02 03:00:50;;;;;;;1.52;1.00;;;14.60;95.10;;;;;;5051867;28;20036;-66
2022/09/02 03:03:19;;;;;;;1.80;1.02;;;14.60;95.20;;;;;;5052324;28;20048;-67
2022/09/02 03:05:45;;;;;;;1.73;1.05;;;14.60;95.20;;;;;;5052081;28;20037;-65
2022/09/02 03:08:11;;;;;;;2.33;1.25;;;14.60;95.30;;;;;;5052437;28;20043;-66
2022/09/02 03:10:39;;;;;;;2.13;1.13;;;14.50;95.50;;;;;;5051052;28;20040;-65
2022/09/02 03:13:05;;;;;;;2.83;1.30;;;14.50;95.70;;;;;;5052271;28;20039;-66
2022/09/02 03:15:31;;;;;;;2.13;1.00;;;14.40;95.80;;;;;;5051992;28;20152;-66
2022/09/02 03:17:57;;;;;;;3.08;1.38;;;14.40;96.10;;;;;;5052133;28;20415;-66
2022/09/02 03:20:23;;;;;;;1.80;1.20;;;14.40;96.20;;;;;;5051491;28;20095;-66
2022/09/02 03:22:49;;;;;;;3.33;1.20;;;14.30;96.30;;;;;;5052059;28;20045;-66
2022/09/02 03:25:19;;;;;;;4.15;1.38;;;14.30;96.30;;;;;;5051841;28;20075;-66
2022/09/02 03:27:45;;;;;;;2.70;1.30;;;14.30;96.50;;;;;;5051971;28;20111;-66
2022/09/02 03:30:15;;;;;;;3.08;1.50;;;14.30;96.50;;;;;;5051641;28;20098;-66
2022/09/02 03:32:41;;;;;;;1.77;1.20;;;14.30;96.80;;;;;;5051746;28;20037;-66
2022/09/02 03:35:11;;;;;;;1.63;1.42;;;14.20;96.80;;;;;;5051602;28;20105;-66
2022/09/02 03:37:37;;;;;;;2.72;1.50;;;14.20;96.90;;;;;;5050529;28;20049;-66
2022/09/02 03:40:09;;;;;;;3.05;1.40;;;14.20;97.20;;;;;;5051497;28;20037;-66
2022/09/02 03:42:34;;;;;;;2.08;1.40;;;14.10;97.40;;;;;;5051855;28;20073;-66
2022/09/02 03:45:00;;;;;;;2.03;0.93;;;14.10;97.50;;;;;;5051499;28;20222;-66
2022/09/02 03:47:29;;;;;;;1.63;1.35;;;14.10;97.60;;;;;;5051491;28;20033;-66
2022/09/02 03:49:56;;;;;;;1.65;1.50;;;14.00;97.70;;;;;;5049997;28;20053;-66
2022/09/02 03:52:21;;;;;;;2.47;1.15;;;14.00;97.70;;;;;;5050632;28;20049;-66
2022/09/02 03:54:47;;;;;;;3.30;1.23;;;14.00;97.90;;;;;;5051538;28;20055;-66
2022/09/02 03:57:13;;;;;;;1.80;1.60;;;14.00;98.00;;;;;;5050221;28;20122;-66
2022/09/02 03:59:39;;;;;;;5.15;1.50;;;13.90;98.20;;;;;;5051155;28;20048;-66
2022/09/02 04:02:04;;;;;;;1.88;1.20;;;13.90;98.50;;;;;;5051359;28;20041;-66
2022/09/02 04:04:30;;;;;;;3.65;1.67;;;13.80;98.70;;;;;;5051560;28;20060;-66
2022/09/02 04:06:56;;;;;;;3.22;1.50;;;13.80;98.90;;;;;;5052132;28;20044;-66
2022/09/02 04:09:22;;;;;;;2.45;1.40;;;13.80;99.00;;;;;;5053631;28;20045;-66
2022/09/02 04:11:48;;;;;;;1.80;1.65;;;13.80;99.10;;;;;;5051555;28;20044;-66
2022/09/02 04:14:14;;;;;;;2.65;1.40;;;13.70;99.30;;;;;;5033370;28;20501;-66
2022/09/02 04:16:40;;;;;;;4.97;1.95;;;13.80;99.40;;;;;;5051233;28;20422;-66
2022/09/02 04:19:06;;;;;;;1.88;1.65;;;13.70;99.50;;;;;;5051481;28;20044;-67
2022/09/02 04:21:34;;;;;;;4.25;1.70;;;13.70;99.60;;;;;;5053358;28;20076;-66
2022/09/02 04:24:00;;;;;;;2.42;1.52;;;13.60;99.60;;;;;;5055107;28;20098;-66
2022/09/02 04:26:26;;;;;;;8.10;1.77;;;13.60;99.80;;;;;;5053746;28;20124;-66
2022/09/02 04:28:52;;;;;;;2.55;1.60;;;13.60;99.90;;;;;;5055157;28;20043;-66
2022/09/02 04:31:21;;;;;;;2.30;1.60;;;13.60;99.90;;;;;;5054856;28;20406;-66
2022/09/02 04:33:47;;;;;;;1.90;1.30;;;13.50;99.90;;;;;;5055075;28;20569;-66
2022/09/02 04:36:14;;;;;;;2.08;1.73;;;13.50;99.90;;;;;;5053714;28;20073;-67
2022/09/02 04:38:41;;;;;;;1.83;1.48;;;13.50;99.90;;;;;;5053861;28;20060;-67
2022/09/02 04:41:09;;;;;;;3.08;2.00;;;13.50;99.90;;;;;;5054633;28;20072;-67
2022/09/02 04:43:36;;;;;;;1.77;1.60;;;13.50;99.90;;;;;;5054799;28;20380;-67
2022/09/02 04:46:04;;;;;;;3.85;1.52;;;13.50;99.90;;;;;;5055019;28;20036;-71
2022/09/02 04:48:31;;;;;;;4.10;1.67;;;13.50;99.90;;;;;;5054799;28;20033;-67
2022/09/02 04:51:01;;;;;;;2.35;1.70;;;13.50;99.90;;;;;;5054635;28;20462;-67
2022/09/02 04:53:27;;;;;;;4.72;1.88;;;13.50;99.90;;;;;;5054846;28;20051;-67
2022/09/02 04:55:52;;;;;;;5.20;1.50;;;13.50;99.90;;;;;;5053380;28;20040;-67
2022/09/02 04:58:18;;;;;;;2.78;2.00;;;13.50;99.90;;;;;;5053281;28;20033;-67
2022/09/02 05:00:43;;;;;;;2.40;1.88;;;13.40;99.90;;;;;;5054448;28;20083;-67
2022/09/02 05:03:10;;;;;;;1.98;1.70;;;13.50;99.90;;;;;;5036864;28;20043;-67
2022/09/02 05:05:38;;;;;;;2.88;1.83;;;13.40;99.90;;;;;;5053433;28;20041;-67
2022/09/02 05:08:03;;;;;;;3.05;1.75;;;13.50;99.90;;;;;;5053477;28;20395;-67
2022/09/02 05:10:31;;;;;;;3.35;1.80;;;13.40;99.90;;;;;;5052897;28;20036;-67
2022/09/02 05:12:56;;;;;;;2.40;1.83;;;13.50;99.90;;;;;;5036383;28;20534;-67
2022/09/02 05:15:22;;;;;;;2.00;1.50;;;13.50;99.90;;;;;;5054394;28;20120;-67
2022/09/02 05:17:48;;;;;;;3.78;1.90;;;13.50;99.90;;;;;;5053000;28;20521;-67
2022/09/02 05:20:13;;;;;;;3.97;1.92;;;13.50;99.90;;;;;;5054028;28;20041;-67
2022/09/02 05:22:40;;;;;;;3.42;1.83;;;13.70;99.90;;;;;;5053039;28;20551;-67
2022/09/02 05:25:08;;;;;;;4.72;1.95;;;13.70;99.90;;;;;;5054028;28;20029;-67
2022/09/02 05:27:34;;;;;;;2.35;1.73;;;13.90;99.90;;;;;;5052784;28;20037;-67
2022/09/02 05:29:59;;;;;;;3.63;1.45;;;14.00;99.90;;;;;;5053938;28;20041;-67
2022/09/02 05:32:26;;;;;;;4.10;1.65;;;14.00;99.90;;;;;;5053110;28;20059;-67
2022/09/02 05:34:53;;;;;;;2.65;1.70;;;14.10;99.90;;;;;;5052649;28;20418;-67
2022/09/02 05:37:18;;;;;;;5.82;2.00;;;14.20;99.60;;;;;;5052817;28;20041;-67
2022/09/02 05:39:44;;;;;;;3.88;1.98;;;14.40;99.30;;;;;;5053440;28;20069;-67
2022/09/02 05:42:10;;;;;;;2.10;1.83;;;14.40;99.30;;;;;;5053708;28;20040;-65
2022/09/02 05:44:36;;;;;;;3.08;1.38;;;14.50;98.70;;;;;;5052446;28;20398;-67
2022/09/02 05:47:01;;;;;;;2.20;1.67;;;14.60;98.50;;;;;;5053810;28;20045;-67
2022/09/02 05:49:27;;;;;;;2.67;1.63;;;14.70;98.20;;;;;;5053525;28;20506;-67
2022/09/02 05:51:55;;;;;;;3.22;1.70;;;14.80;98.10;;;;;;5053708;28;20089;-67
2022/09/02 05:54:24;;;;;;;2.30;1.80;;;14.90;97.60;;;;;;5053517;28;20090;-67
2022/09/02 05:56:52;;;;;;;3.50;2.15;;;15.00;97.30;;;;;;5052176;28;20037;-67
2022/09/02 05:59:19;;;;;;;3.33;1.90;;;15.10;97.00;;;;;;5053402;28;20372;-67
2022/09/02 06:01:46;;;;;;;3.15;1.65;;;15.30;96.70;;;;;;5053720;28;20410;-67
2022/09/02 06:04:12;;;;;;;4.25;1.85;;;15.40;96.50;;;;;;5053498;28;20170;-67
2022/09/02 06:06:38;;;;;;;2.10;1.70;;;15.60;95.90;;;;;;5053394;28;20108;-67
2022/09/02 06:09:07;;;;;;;3.33;1.35;;;15.70;95.60;;;;;;5053273;28;20033;-67
2022/09/02 06:11:33;;;;;;;3.65;1.80;;;15.90;95.20;;;;;;5052954;28;20039;-67
2022/09/02 06:13:59;;;;;;;5.07;1.33;;;16.00;94.70;;;;;;5053255;28;20056;-67
2022/09/02 06:16:25;;;;;;;2.42;1.80;;;16.10;94.30;;;;;;5053394;28;20037;-67
2022/09/02 06:18:51;;;;;;;3.03;1.63;;;16.30;94.00;;;;;;5053188;28;20045;-66
2022/09/02 06:21:19;;;;;;;4.50;1.90;;;16.40;93.60;;;;;;5052865;28;20106;-66
2022/09/02 06:23:45;;;;;;;2.92;1.90;;;16.50;93.40;;;;;;5052901;28;20045;-66
2022/09/02 06:26:16;;;;;;;3.22;1.70;;;16.50;93.10;;;;;;5052831;28;20120;-66
2022/09/02 06:28:42;;;;;;;2.00;1.60;;;16.60;92.80;;;;;;5053084;28;20033;-66
2022/09/02 06:31:12;;;;;;;3.15;1.65;;;16.70;92.80;;;;;;5052652;28;20036;-66
2022/09/02 06:33:37;;;;;;;3.95;1.90;;;17.00;92.50;;;;;;5052919;28;20131;-66
2022/09/02 06:36:09;;;;;;;6.05;2.35;;;17.10;92.10;;;;;;5052643;28;20112;-66
2022/09/02 06:38:39;;;;;;;3.38;1.75;;;17.10;91.80;;;;;;5052992;28;20032;-67
2022/09/02 06:41:05;;;;;;;7.30;1.55;;;17.40;91.40;;;;;;5052500;28;20124;-66
2022/09/02 06:43:32;;;;;;;3.03;1.70;;;17.50;90.70;;;;;;5052519;28;20079;-66
2022/09/02 06:45:58;;;;;;;2.85;1.35;;;17.70;90.50;;;;;;5051325;28;20044;-66
2022/09/02 06:48:24;;;;;;;3.60;1.83;;;17.80;90.50;;;;;;5052579;28;20033;-66
2022/09/02 06:50:50;;;;;;;2.97;1.70;;;17.80;90.00;;;;;;5052110;28;20049;-65
2022/09/02 06:53:16;;;;;;;3.20;1.58;;;17.70;89.60;;;;;;5052688;28;20047;-66
2022/09/02 06:55:45;;;;;;;2.20;1.52;;;17.70;89.40;;;;;;5052428;28;20076;-66
2022/09/02 06:58:12;;;;;;;3.50;1.40;;;18.00;88.90;;;;;;5052570;28;20033;-65
2022/09/02 07:00:40;;;;;;;4.38;1.70;;;18.00;88.60;;;;;;5052071;28;20088;-65
2022/09/02 07:06:09;;;;;;;1.85;1.60;;;18.20;87.40;;;;;;5047334;28;20064;-65
2022/09/02 07:08:37;;;;;;;4.55;1.40;;;18.30;86.80;;;;;;5041221;28;20449;-66
2022/09/02 07:11:04;;;;;;;2.78;1.25;;;18.40;86.00;;;;;;5041923;28;20116;-65
2022/09/02 07:13:30;;;;;;;3.78;1.30;;;18.40;84.80;;;;;;5046437;28;20052;-65
2022/09/02 07:15:56;;;;;;;3.58;1.42;;;18.60;84.60;;;;;;5051899;28;20040;-66
2022/09/02 07:18:21;;;;;;;4.20;1.58;;;18.70;84.30;;;;;;5052276;28;20076;-66
2022/09/02 07:20:47;;;;;;;4.82;1.55;;;18.70;83.10;;;;;;5051825;28;20097;-66
2022/09/02 07:23:14;;;;;;;3.88;1.40;;;18.90;83.10;;;;;;5052023;28;20037;-66
2022/09/02 07:25:42;;;;;;;2.95;1.40;;;19.00;82.30;;;;;;5047761;28;20037;-66
2022/09/02 07:28:09;;;;;;;3.53;1.50;;;19.20;81.70;;;;;;5041758;28;20033;-66
2022/09/02 07:30:35;;;;;;;3.17;1.27;;;19.20;81.00;;;;;;5039997;28;20507;-66
2022/09/02 07:33:01;;;;;;;3.47;1.60;;;19.40;80.60;;;;;;5042445;28;20037;-65
2022/09/02 07:35:27;;;;;;;2.63;1.63;;;19.50;80.10;;;;;;5041131;28;20033;-65
2022/09/02 07:37:53;;;;;;;1.90;1.42;;;19.50;79.70;;;;;;5047081;28;20044;-66
2022/09/02 07:40:22;;;;;;;3.50;1.20;;;19.60;79.10;;;;;;5051453;28;20414;-66
2022/09/02 07:42:49;;;;;;;2.22;1.65;;;19.60;78.50;;;;;;5051637;28;20116;-65
2022/09/02 07:45:14;;;;;;;3.10;1.52;;;19.70;78.40;;;;;;5050609;28;20048;-67
2022/09/02 07:47:40;;;;;;;2.28;1.40;;;19.70;77.80;;;;;;5051769;28;20029;-68
2022/09/02 07:50:06;;;;;;;3.33;1.90;;;19.70;77.70;;;;;;5051484;28;20045;-68
2022/09/02 07:52:32;;;;;;;3.72;1.90;;;19.60;77.40;;;;;;5050410;28;20127;-68
2022/09/02 07:54:57;;;;;;;2.75;1.60;;;19.70;77.30;;;;;;5051339;28;20033;-68
2022/09/02 07:57:23;;;;;;;2.70;1.73;;;19.70;77.00;;;;;;5051182;28;20049;-68
2022/09/02 07:59:49;;;;;;;2.53;1.67;;;19.70;77.30;;;;;;5051122;28;20044;-68
2022/09/02 08:02:16;;;;;;;5.65;2.25;;;19.90;76.90;;;;;;5050536;28;20414;-69
2022/09/02 08:04:42;;;;;;;2.22;1.92;;;19.90;76.50;;;;;;5051508;28;20060;-69
2022/09/02 08:07:09;;;;;;;3.13;1.80;;;19.80;75.80;;;;;;5050224;28;20116;-68
2022/09/02 08:09:35;;;;;;;3.22;1.73;;;20.00;75.40;;;;;;5051203;28;20037;-69
2022/09/02 08:12:01;;;;;;;4.03;1.90;;;20.10;75.20;;;;;;5050339;28;20593;-69
2022/09/02 08:14:28;;;;;;;3.15;1.88;;;20.10;74.80;;;;;;5051561;28;20127;-69
2022/09/02 08:16:54;;;;;;;6.68;2.10;;;20.30;74.50;;;;;;5050129;28;20487;-68
2022/09/02 08:19:20;;;;;;;3.75;1.80;;;20.30;74.10;;;;;;5049991;28;20380;-69
2022/09/02 08:21:46;;;;;;;2.65;1.58;;;20.50;74.20;;;;;;5050316;28;20414;-69
2022/09/02 08:24:12;;;;;;;3.53;1.75;;;20.60;73.70;;;;;;5051092;28;20041;-69
2022/09/02 08:26:37;;;;;;;4.18;1.50;;;20.60;73.10;;;;;;5107114;22;20109;-70
2022/09/02 08:29:05;;;;;;;6.57;1.50;;;20.80;72.90;;;;;;5091426;28;20040;-70
2022/09/02 08:31:30;;;;;;;3.00;1.85;;;21.00;72.50;;;;;;5091522;28;20624;-70
2022/09/02 08:33:57;;;;;;;3.85;1.48;;;21.40;71.90;;;;;;5091681;28;20040;-70
2022/09/02 08:36:22;;;;;;;3.75;2.20;;;21.30;71.30;;;;;;5091193;28;20524;-70
2022/09/02 08:38:48;;;;;;;1.92;1.30;;;21.40;70.40;;;;;;5091331;28;20044;-70
2022/09/02 08:41:40;;;;;;;4.07;1.52;;;21.60;70.20;;;;;;5091011;28;20044;-70
2022/09/02 08:44:06;;;;;;;3.33;1.58;;;21.70;69.10;;;;;;5091722;28;20044;-70
2022/09/02 08:46:34;;;;;;;7.32;1.60;;;21.80;69.10;;;;;;5091242;28;20043;-70
2022/09/02 08:49:08;;;;;;;4.05;1.60;;;21.80;67.30;;;;;;5091398;28;20036;-70
2022/09/02 08:51:55;;;;;;;4.18;1.40;;;21.90;66.80;;;;;;5091132;28;20040;-70
2022/09/02 08:54:39;;;;;;;2.60;1.35;;;22.20;66.50;;;;;;5091564;28;20173;-70
2022/09/02 08:57:06;;;;;;;3.40;1.40;;;22.40;66.80;;;;;;5091468;28;20051;-70
2022/09/02 08:59:32;;;;;;;3.28;1.30;;;22.40;65.60;;;;;;5090972;28;20032;-70
2022/09/02 09:02:26;;;;;;;5.30;1.42;;;22.60;65.50;;;;;;5091329;28;20097;-70
2022/09/02 09:04:57;;;;;;;3.63;1.20;;;22.50;63.90;;;;;;5091289;28;20043;-70
2022/09/02 09:07:26;;;;;;;2.53;1.30;;;22.40;65.00;;;;;;5090093;28;20044;-70
2022/09/02 09:10:14;;;;;;;3.05;1.45;;;22.40;64.20;;;;;;5094540;28;20094;-70
2022/09/02 09:12:53;;;;;;;4.80;1.60;;;22.30;63.70;;;;;;5094716;28;20040;-70
2022/09/02 09:15:24;;;;;;;2.75;1.23;;;22.30;64.00;;;;;;5094872;28;20089;-70
2022/09/02 09:17:57;;;;;;;2.92;1.20;;;22.30;63.10;;;;;;5094844;28;20075;-70
2022/09/02 09:20:27;;;;;;;;;;;22.30;63.00;;;;;;5094693;28;20089;-70
2022/09/02 09:22:59;;;;;;;3.83;1.40;;;22.20;62.80;;;;;;5094547;28;20385;-69
2022/09/02 09:25:29;;;;;;;4.97;1.40;;;22.30;62.60;;;;;;5094319;28;20495;-69
2022/09/02 09:27:56;;;;;;;2.17;1.02;;;22.40;62.40;;;;;;5094542;28;20532;-70
2022/09/02 09:30:22;;;;;;;6.10;1.58;;;22.40;62.10;;;;;;5094211;28;20044;-70
2022/09/02 09:32:56;;;;;;;4.03;1.52;;;22.40;62.00;;;;;;5094335;28;20040;-70
2022/09/02 09:35:23;;;;;;;5.30;1.60;;;22.30;61.20;;;;;;5094162;28;20446;-70
2022/09/02 09:37:50;;;;;;;3.00;1.52;;;22.20;61.60;;;;;;5094229;28;20042;-70
2022/09/02 09:40:22;;;;;;;5.07;1.40;;;22.20;61.60;;;;;;5094001;28;20093;-70
2022/09/02 09:43:12;;;;;;;4.00;1.40;;;22.00;62.00;;;;;;5094238;28;20067;-70
2022/09/02 09:45:40;;;;;;;6.40;1.50;;;22.10;61.70;;;;;;5094023;28;20555;-69
2022/09/02 09:48:15;;;;;;;4.50;1.55;;;22.10;62.00;;;;;;5093977;28;20071;-70
2022/09/02 09:50:45;;;;;;;7.30;1.55;;;22.10;61.40;;;;;;5093801;28;20083;-69
2022/09/02 09:53:25;;;;;;;6.88;1.42;;;22.10;61.70;;;;;;5093926;28;20467;-70
2022/09/02 09:55:55;;;;;;;4.78;1.27;;;22.20;61.00;;;;;;5093644;28;20601;-69
2022/09/02 09:58:23;;;;;;;4.60;0.98;;;22.30;61.30;;;;;;5093763;28;20047;-69
2022/09/02 10:00:54;;;;;;;1.85;1.20;;;22.40;60.80;;;;;;5093582;28;20040;-69
2022/09/02 10:03:26;;;;;;;5.65;1.35;;;22.40;60.00;;;;;;5093983;28;20028;-69
2022/09/02 10:05:57;;;;;;;6.15;1.48;;;22.30;59.20;;;;;;5093697;28;20409;-69
2022/09/02 10:08:25;;;;;;;4.90;1.35;;;22.30;59.60;;;;;;5093801;28;20036;-69
2022/09/02 10:11:04;;;;;;;5.82;1.20;;;22.20;59.30;;;;;;5093262;28;20093;-70
2022/09/02 10:13:35;;;;;;;3.35;1.65;;;22.40;59.10;;;;;;5093421;28;20036;-68
2022/09/02 10:16:31;;;;;;;3.10;1.38;;;22.40;58.90;;;;;;5093301;28;20097;-68
2022/09/02 10:19:32;;;;;;;3.75;1.40;;;22.30;58.00;;;;;;5089599;28;20036;-69
2022/09/02 10:22:09;;;;;;;4.88;1.27;;;22.50;58.50;;;;;;5013241;28;20061;-69
2022/09/02 10:24:55;;;;;;;4.72;1.33;;;22.60;58.40;;;;;;5080683;28;20035;-69
2022/09/02 10:27:46;;;;;;;3.38;1.20;;;22.60;58.20;;;;;;5082038;28;20422;-69
2022/09/02 10:30:21;;;;;;;5.18;1.52;;;22.80;57.90;;;;;;5063276;28;20052;-68
2022/09/02 10:32:58;;;;;;;5.05;1.77;;;22.80;57.40;;;;;;5083650;28;20032;-69
2022/09/02 10:35:35;;;;;;;4.40;1.45;;;23.00;57.40;;;;;;5082305;28;20055;-69
2022/09/02 10:38:38;;;;;;;8.20;1.27;;;22.90;57.30;;;;;;5091514;28;20407;-68
2022/09/02 10:41:30;;;;;;;8.02;1.50;;;23.00;56.50;;;;;;5092651;28;20405;-69
2022/09/02 10:44:29;;;;;;;6.32;1.30;;;22.80;56.60;;;;;;5089638;28;20037;-68
2022/09/02 10:47:03;;;;;;;3.67;1.30;;;22.90;56.70;;;;;;5081900;28;20062;-68
2022/09/02 10:49:48;;;;;;;5.25;1.13;;;22.90;56.20;;;;;;5080924;28;20112;-69
2022/09/02 10:52:43;;;;;;;5.97;1.38;;;22.90;56.00;;;;;;5081671;28;20036;-69
2022/09/02 10:55:34;;;;;;;3.92;1.08;;;22.90;56.20;;;;;;5083282;28;20135;-69
2022/09/02 10:58:06;;;;;;;1.88;1.27;;;22.90;55.40;;;;;;5072443;28;20044;-69
2022/09/02 11:00:35;;;;;;;4.50;1.30;;;22.90;54.60;;;;;;5072053;28;20076;-69
2022/09/02 11:03:29;;;;;;;3.95;0.93;;;22.90;54.70;;;;;;5072133;28;20445;-69
2022/09/02 11:06:03;;;;;;;6.10;1.50;;;23.00;55.00;;;;;;5072258;28;20040;-69
2022/09/02 11:08:53;;;;;;;5.65;1.20;;;23.00;54.40;;;;;;5072229;28;20101;-69
2022/09/02 11:11:30;;;;;;;2.88;1.27;;;23.00;54.50;;;;;;5071823;28;20143;-69
2022/09/02 11:14:21;;;;;;;1.95;1.02;;;22.90;54.20;;;;;;5072261;28;20425;-69
2022/09/02 11:16:50;;;;;;;2.90;0.98;;;22.90;53.70;;;;;;5071954;28;20524;-69
2022/09/02 11:19:27;;;;;;;3.47;1.30;;;22.90;54.30;;;;;;5071688;28;20040;-70
2022/09/02 11:22:02;;;;;;;5.30;1.20;;;22.90;54.40;;;;;;5071788;28;20084;-69
2022/09/02 11:24:56;;;;;;;5.25;1.42;;;23.00;54.10;;;;;;5071873;28;20514;-69
2022/09/02 11:27:49;;;;;;;5.03;1.17;;;23.10;54.00;;;;;;5070715;28;20040;-69
2022/09/02 11:30:24;;;;;;;4.78;1.00;;;23.20;54.20;;;;;;5070789;28;20044;-69
2022/09/02 11:33:21;;;;;;;5.45;1.20;;;23.20;54.00;;;;;;5071989;28;20084;-69
2022/09/02 11:35:48;;;;;;;4.85;1.20;;;23.30;54.10;;;;;;5043973;28;20079;-69
2022/09/02 11:38:38;;;;;;;4.38;0.93;;;23.30;54.20;;;;;;5071751;28;20041;-69
2022/09/02 11:41:25;;;;;;;7.10;1.75;;;23.40;53.90;;;;;;5071285;28;20509;-69
2022/09/02 11:43:59;;;;;;;5.70;1.42;;;23.40;53.90;;;;;;5071721;28;20044;-69
2022/09/02 11:46:41;;;;;;;1.90;0.88;;;23.30;52.70;;;;;;5071621;28;20060;-69
2022/09/02 11:49:32;;;;;;;3.22;1.23;;;23.30;52.60;;;;;;5071793;28;20089;-69
2022/09/02 11:52:21;;;;;;;3.42;1.00;;;23.30;52.70;;;;;;5071833;28;20036;-69
2022/09/02 11:55:15;;;;;;;2.60;0.95;;;23.30;52.20;;;;;;5071519;28;20043;-69
2022/09/02 11:57:41;;;;;;;1.75;1.08;;;23.40;52.10;;;;;;5071799;28;20456;-69
2022/09/02 12:00:23;;;;;;;1.33;0.80;;;23.40;51.90;;;;;;5071244;28;20082;-69
2022/09/02 12:02:55;;;;;;;3.83;1.08;;;23.40;52.10;;;;;;5071607;28;20041;-68
2022/09/02 12:05:30;;;;;;;13.32;1.30;;;23.50;51.70;;;;;;5071395;28;20041;-68
2022/09/02 12:08:04;;;;;;;15.25;1.90;;;23.60;51.70;;;;;;5071675;28;20041;-68
2022/09/02 12:10:46;;;;;;;3.58;0.93;;;23.80;51.10;;;;;;5076153;28;20041;-69
2022/09/02 12:13:36;;;;;;;4.70;1.00;;;23.80;49.80;;;;;;5071555;28;20075;-68
2022/09/02 12:16:22;;;;;;;4.00;0.73;;;23.80;49.60;;;;;;5071118;28;20045;-69
2022/09/02 12:18:53;;;;;;;5.20;0.88;;;23.80;49.10;;;;;;5083467;28;20071;-69
2022/09/02 12:21:23;;;;;;;10.15;1.02;;;23.90;49.30;;;;;;5091267;28;20043;-69
2022/09/02 12:23:55;;;;;;;7.00;1.00;;;23.90;48.80;;;;;;5091487;28;20036;-69
2022/09/02 12:26:37;;;;;;;3.88;1.02;;;23.90;47.80;;;;;;5091113;28;20565;-69
2022/09/02 12:29:17;;;;;;;3.15;0.80;;;23.90;47.60;;;;;;5091574;28;20036;-69
2022/09/02 12:31:53;;;;;;;2.63;0.80;;;23.90;47.50;;;;;;5089518;28;20032;-68
2022/09/02 12:34:19;;;;;;;2.45;0.70;;;24.00;47.90;;;;;;5080177;28;20036;-69
2022/09/02 12:36:50;;;;;;;2.83;0.68;;;24.00;48.20;;;;;;5083781;28;20035;-69
2022/09/02 12:39:22;;;;;;;2.83;0.68;;;24.00;47.60;;;;;;5079808;28;20491;-69
2022/09/02 12:42:01;;;;;;;9.23;1.23;;;23.80;47.00;;;;;;5092177;28;20418;-69
2022/09/02 12:44:27;;;;;;;7.55;1.52;;;23.80;47.00;;;;;;5084506;28;20040;-69
2022/09/02 12:47:24;;;;;;;3.90;1.00;;;23.80;46.80;;;;;;5073747;28;20043;-70
2022/09/02 12:50:05;;;;;;;2.10;0.82;;;23.80;46.80;;;;;;5074772;28;20116;-69
2022/09/02 12:52:33;;;;;;;6.72;0.93;;;23.90;47.50;;;;;;5074067;28;20048;-69
2022/09/02 12:55:09;;;;;;;7.63;1.33;;;23.90;47.20;;;;;;5073774;28;20033;-69
2022/09/02 12:57:41;;;;;;;2.40;0.98;;;24.00;46.80;;;;;;5074549;28;20394;-70
2022/09/02 13:00:11;;;;;;;5.75;0.90;;;24.00;46.40;;;;;;5079182;28;20044;-69
2022/09/02 13:02:43;;;;;;;3.65;0.75;;;24.00;46.60;;;;;;5094883;28;20032;-69
2022/09/02 13:05:25;;;;;;;3.20;0.80;;;24.00;46.50;;;;;;5094759;28;20032;-69
2022/09/02 13:08:09;;;;;;;1.63;0.73;;;24.00;46.50;;;;;;5090769;28;20036;-69